sensor_id;sensor_type;location;lat;lon;timestamp;pressure;altitude;pressure_sealevel;temperature;humidity
4012;BME280;2020;48.682;9.024;2023-09-19T00:00:00;96124.19;;;14.45;100.00
4012;BME280;2020;48.682;9.024;2023-09-19T00:02:26;96117.97;;;14.46;100.00
4012;BME280;2020;48.682;9.024;2023-09-19T00:04:51;96123.56;;;14.43;100.00
4012;BME280;2020;48.682;9.024;2023-09-19T00:07:17;96123.34;;;14.38;100.00
4012;BME280;2020;48.682;9.024;2023-09-19T00:09:42;96127.56;;;14.39;100.00
4012;BME280;2020;48.682;9.024;2023-09-19T00:12:09;96138.78;;;14.32;100.00
4012;BME280;2020;48.682;9.024;2023-09-19T00:14:34;96133.34;;;14.34;100.00
4012;BME280;2020;48.682;9.024;2023-09-19T00:17:01;96127.13;;;14.35;100.00
4012;BME280;2020;48.682;9.024;2023-09-19T00:19:31;96129.56;;;14.37;100.00
4012;BME280;2020;48.682;9.024;2023-09-19T00:21:57;96133.22;;;14.42;100.00
4012;BME280;2020;48.682;9.024;2023-09-19T00:24:23;96125.94;;;14.38;100.00
4012;BME280;2020;48.682;9.024;2023-09-19T00:26:48;96126.06;;;14.29;100.00
4012;BME280;2020;48.682;9.024;2023-09-19T00:29:13;96129.94;;;14.33;100.00
4012;BME280;2020;48.682;9.024;2023-09-19T00:31:43;96121.47;;;14.31;100.00
4012;BME280;2020;48.682;9.024;2023-09-19T00:34:08;96122.47;;;14.30;100.00
4012;BME280;2020;48.682;9.024;2023-09-19T00:36:35;96120.38;;;14.26;100.00
4012;BME280;2020;48.682;9.024;2023-09-19T00:39:01;96122.63;;;14.29;100.00
4012;BME280;2020;48.682;9.024;2023-09-19T00:41:28;96119.72;;;14.17;100.00
4012;BME280;2020;48.682;9.024;2023-09-19T00:43:55;96134.31;;;14.26;100.00
4012;BME280;2020;48.682;9.024;2023-09-19T00:46:21;96126.31;;;14.35;100.00
4012;BME280;2020;48.682;9.024;2023-09-19T00:48:46;96132.94;;;14.30;100.00
4012;BME280;2020;48.682;9.024;2023-09-19T00:51:12;96130.69;;;14.27;100.00
4012;BME280;2020;48.682;9.024;2023-09-19T00:53:39;96131.06;;;14.24;100.00
4012;BME280;2020;48.682;9.024;2023-09-19T00:56:05;96145.94;;;14.24;100.00
4012;BME280;2020;48.682;9.024;2023-09-19T00:58:33;96138.28;;;14.22;100.00
4012;BME280;2020;48.682;9.024;2023-09-19T01:01:01;96140.16;;;14.28;100.00
4012;BME280;2020;48.682;9.024;2023-09-19T01:03:27;96146.16;;;14.22;100.00
4012;BME280;2020;48.682;9.024;2023-09-19T01:05:52;96137.53;;;14.28;100.00
4012;BME280;2020;48.682;9.024;2023-09-19T01:08:18;96137.16;;;14.31;100.00
4012;BME280;2020;48.682;9.024;2023-09-19T01:10:59;96136.78;;;14.35;100.00
4012;BME280;2020;48.682;9.024;2023-09-19T01:13:35;96141.66;;;14.38;100.00
4012;BME280;2020;48.682;9.024;2023-09-19T01:16:28;96153.00;;;14.45;100.00
4012;BME280;2020;48.682;9.024;2023-09-19T01:21:59;96140.44;;;14.40;100.00
4012;BME280;2020;48.682;9.024;2023-09-19T01:27:25;96146.91;;;14.38;100.00
4012;BME280;2020;48.682;9.024;2023-09-19T01:30:10;96144.91;;;14.40;100.00
4012;BME280;2020;48.682;9.024;2023-09-19T01:32:39;96151.38;;;14.44;100.00
4012;BME280;2020;48.682;9.024;2023-09-19T01:35:06;96161.28;;;14.48;100.00
4012;BME280;2020;48.682;9.024;2023-09-19T01:37:37;96161.72;;;14.52;100.00
4012;BME280;2020;48.682;9.024;2023-09-19T01:40:07;96169.56;;;14.52;100.00
4012;BME280;2020;48.682;9.024;2023-09-19T01:51:06;96171.50;;;14.43;100.00
4012;BME280;2020;48.682;9.024;2023-09-19T01:56:05;96171.06;;;14.40;100.00
4012;BME280;2020;48.682;9.024;2023-09-19T01:58:39;96176.31;;;14.40;100.00
4012;BME280;2020;48.682;9.024;2023-09-19T02:01:08;96187.16;;;14.37;100.00
4012;BME280;2020;48.682;9.024;2023-09-19T02:03:36;96181.94;;;14.37;100.00
4012;BME280;2020;48.682;9.024;2023-09-19T02:06:02;96177.47;;;14.37;100.00
4012;BME280;2020;48.682;9.024;2023-09-19T02:08:30;96177.69;;;14.36;100.00
4012;BME280;2020;48.682;9.024;2023-09-19T02:10:56;96177.06;;;14.33;100.00
4012;BME280;2020;48.682;9.024;2023-09-19T02:13:22;96179.06;;;14.31;100.00
4012;BME280;2020;48.682;9.024;2023-09-19T02:15:52;96184.28;;;14.31;100.00
4012;BME280;2020;48.682;9.024;2023-09-19T02:18:18;96187.53;;;14.33;100.00
4012;BME280;2020;48.682;9.024;2023-09-19T02:20:43;96177.81;;;14.27;100.00
4012;BME280;2020;48.682;9.024;2023-09-19T02:23:10;96178.97;;;14.25;100.00
4012;BME280;2020;48.682;9.024;2023-09-19T02:25:35;96185.66;;;14.27;100.00
4012;BME280;2020;48.682;9.024;2023-09-19T02:28:01;96186.03;;;14.24;100.00
4012;BME280;2020;48.682;9.024;2023-09-19T02:30:29;96190.63;;;14.22;100.00
4012;BME280;2020;48.682;9.024;2023-09-19T02:32:54;96196.25;;;14.19;100.00
4012;BME280;2020;48.682;9.024;2023-09-19T02:35:19;96195.00;;;14.15;100.00
4012;BME280;2020;48.682;9.024;2023-09-19T02:37:46;96197.03;;;14.19;100.00
4012;BME280;2020;48.682;9.024;2023-09-19T02:40:11;96191.75;;;14.13;100.00
4012;BME280;2020;48.682;9.024;2023-09-19T02:42:53;96199.41;;;14.14;100.00
4012;BME280;2020;48.682;9.024;2023-09-19T02:45:20;96199.75;;;14.11;100.00
4012;BME280;2020;48.682;9.024;2023-09-19T02:47:46;96200.22;;;14.15;100.00
4012;BME280;2020;48.682;9.024;2023-09-19T02:50:12;96200.03;;;14.16;100.00
4012;BME280;2020;48.682;9.024;2023-09-19T02:52:45;96203.47;;;14.17;100.00
4012;BME280;2020;48.682;9.024;2023-09-19T02:55:12;96211.94;;;14.19;100.00
4012;BME280;2020;48.682;9.024;2023-09-19T02:57:39;96210.31;;;14.18;100.00
4012;BME280;2020;48.682;9.024;2023-09-19T03:00:08;96211.69;;;14.14;100.00
4012;BME280;2020;48.682;9.024;2023-09-19T03:02:35;96219.53;;;14.14;100.00
4012;BME280;2020;48.682;9.024;2023-09-19T03:05:01;96211.06;;;14.12;100.00
4012;BME280;2020;48.682;9.024;2023-09-19T03:07:28;96212.75;;;14.19;100.00
4012;BME280;2020;48.682;9.024;2023-09-19T03:09:53;96206.34;;;14.22;100.00
4012;BME280;2020;48.682;9.024;2023-09-19T03:12:18;96216.19;;;14.20;100.00
4012;BME280;2020;48.682;9.024;2023-09-19T03:14:43;96214.00;;;14.24;100.00
4012;BME280;2020;48.682;9.024;2023-09-19T03:17:09;96210.94;;;14.20;100.00
4012;BME280;2020;48.682;9.024;2023-09-19T03:19:34;96224.03;;;14.20;100.00
4012;BME280;2020;48.682;9.024;2023-09-19T03:21:59;96213.94;;;14.17;100.00
4012;BME280;2020;48.682;9.024;2023-09-19T03:24:25;96220.47;;;14.28;100.00
4012;BME280;2020;48.682;9.024;2023-09-19T03:26:51;96228.44;;;14.19;100.00
4012;BME280;2020;48.682;9.024;2023-09-19T03:29:17;96222.94;;;14.14;100.00
4012;BME280;2020;48.682;9.024;2023-09-19T03:31:42;96223.66;;;14.23;100.00
4012;BME280;2020;48.682;9.024;2023-09-19T03:34:08;96232.50;;;14.22;100.00
4012;BME280;2020;48.682;9.024;2023-09-19T03:36:34;96222.94;;;14.29;100.00
4012;BME280;2020;48.682;9.024;2023-09-19T03:38:59;96222.94;;;14.29;100.00
4012;BME280;2020;48.682;9.024;2023-09-19T03:41:24;96218.50;;;14.30;100.00
4012;BME280;2020;48.682;9.024;2023-09-19T03:43:50;96226.03;;;14.18;100.00
4012;BME280;2020;48.682;9.024;2023-09-19T03:46:15;96232.06;;;14.18;100.00
4012;BME280;2020;48.682;9.024;2023-09-19T03:48:40;96229.91;;;14.22;100.00
4012;BME280;2020;48.682;9.024;2023-09-19T03:51:06;96225.56;;;14.14;100.00
4012;BME280;2020;48.682;9.024;2023-09-19T03:53:31;96219.03;;;14.03;100.00
4012;BME280;2020;48.682;9.024;2023-09-19T03:55:57;96216.13;;;13.98;100.00
4012;BME280;2020;48.682;9.024;2023-09-19T03:58:22;96219.03;;;14.03;100.00
4012;BME280;2020;48.682;9.024;2023-09-19T04:00:47;96223.25;;;14.04;100.00
4012;BME280;2020;48.682;9.024;2023-09-19T04:03:14;96231.09;;;14.04;100.00
4012;BME280;2020;48.682;9.024;2023-09-19T04:05:45;96222.25;;;14.06;100.00
4012;BME280;2020;48.682;9.024;2023-09-19T04:08:11;96218.28;;;14.10;100.00
4012;BME280;2020;48.682;9.024;2023-09-19T04:10:36;96220.91;;;14.10;100.00
4012;BME280;2020;48.682;9.024;2023-09-19T04:13:02;96214.66;;;14.11;100.00
4012;BME280;2020;48.682;9.024;2023-09-19T04:15:27;96223.94;;;14.13;100.00
4012;BME280;2020;48.682;9.024;2023-09-19T04:17:53;96216.28;;;14.12;100.00
4012;BME280;2020;48.682;9.024;2023-09-19T04:20:18;96230.38;;;14.11;100.00
4012;BME280;2020;48.682;9.024;2023-09-19T04:22:50;96226.13;;;14.10;100.00
4012;BME280;2020;48.682;9.024;2023-09-19T04:25:15;96227.22;;;14.00;100.00
4012;BME280;2020;48.682;9.024;2023-09-19T04:27:40;96228.50;;;14.04;100.00
4012;BME280;2020;48.682;9.024;2023-09-19T04:30:07;96230.75;;;14.08;100.00
4012;BME280;2020;48.682;9.024;2023-09-19T04:32:36;96239.38;;;14.08;100.00
4012;BME280;2020;48.682;9.024;2023-09-19T04:35:01;96233.97;;;14.10;100.00
4012;BME280;2020;48.682;9.024;2023-09-19T04:37:30;96226.75;;;14.12;100.00
4012;BME280;2020;48.682;9.024;2023-09-19T04:39:56;96228.38;;;14.13;100.00
4012;BME280;2020;48.682;9.024;2023-09-19T04:42:21;96234.63;;;14.12;100.00
4012;BME280;2020;48.682;9.024;2023-09-19T04:44:50;96236.50;;;14.18;100.00
4012;BME280;2020;48.682;9.024;2023-09-19T04:47:17;96242.88;;;14.15;100.00
4012;BME280;2020;48.682;9.024;2023-09-19T04:49:43;96244.34;;;14.18;100.00
4012;BME280;2020;48.682;9.024;2023-09-19T04:52:08;96247.13;;;14.16;100.00
4012;BME280;2020;48.682;9.024;2023-09-19T04:54:33;96258.44;;;14.17;100.00
4012;BME280;2020;48.682;9.024;2023-09-19T04:57:01;96261.03;;;14.17;100.00
4012;BME280;2020;48.682;9.024;2023-09-19T04:59:27;96265.03;;;14.13;100.00
4012;BME280;2020;48.682;9.024;2023-09-19T05:01:53;96263.41;;;14.12;100.00
4012;BME280;2020;48.682;9.024;2023-09-19T05:04:18;96277.47;;;14.11;100.00
4012;BME280;2020;48.682;9.024;2023-09-19T05:06:44;96275.84;;;14.10;100.00
4012;BME280;2020;48.682;9.024;2023-09-19T05:09:09;96281.44;;;14.07;100.00
4012;BME280;2020;48.682;9.024;2023-09-19T05:11:35;96283.34;;;13.98;100.00
4012;BME280;2020;48.682;9.024;2023-09-19T05:14:01;96274.84;;;13.96;100.00
4012;BME280;2020;48.682;9.024;2023-09-19T05:16:32;96276.13;;;14.00;100.00
4012;BME280;2020;48.682;9.024;2023-09-19T05:18:57;96281.72;;;13.97;100.00
4012;BME280;2020;48.682;9.024;2023-09-19T05:21:25;96279.94;;;13.97;100.00
4012;BME280;2020;48.682;9.024;2023-09-19T05:23:54;96285.78;;;13.99;100.00
4012;BME280;2020;48.682;9.024;2023-09-19T05:26:19;96277.66;;;13.94;100.00
4012;BME280;2020;48.682;9.024;2023-09-19T05:28:44;96292.38;;;13.95;100.00
4012;BME280;2020;48.682;9.024;2023-09-19T05:31:10;96289.41;;;13.98;100.00
4012;BME280;2020;48.682;9.024;2023-09-19T05:33:35;96289.75;;;13.95;100.00
4012;BME280;2020;48.682;9.024;2023-09-19T05:36:00;96287.06;;;14.03;100.00
4012;BME280;2020;48.682;9.024;2023-09-19T05:38:25;96289.03;;;14.01;100.00
4012;BME280;2020;48.682;9.024;2023-09-19T05:40:51;96291.28;;;14.04;100.00
4012;BME280;2020;48.682;9.024;2023-09-19T05:43:17;96298.78;;;14.08;100.00
4012;BME280;2020;48.682;9.024;2023-09-19T05:45:43;96294.81;;;14.12;100.00
4012;BME280;2020;48.682;9.024;2023-09-19T05:48:14;96303.28;;;14.14;100.00
4012;BME280;2020;48.682;9.024;2023-09-19T05:50:41;96302.66;;;14.12;100.00
4012;BME280;2020;48.682;9.024;2023-09-19T05:53:07;96302.81;;;14.10;100.00
4012;BME280;2020;48.682;9.024;2023-09-19T05:55:33;96304.00;;;14.08;100.00
4012;BME280;2020;48.682;9.024;2023-09-19T05:57:59;96320.34;;;14.10;100.00
4012;BME280;2020;48.682;9.024;2023-09-19T06:00:25;96326.47;;;14.17;100.00
4012;BME280;2020;48.682;9.024;2023-09-19T06:02:53;96341.19;;;14.18;100.00
4012;BME280;2020;48.682;9.024;2023-09-19T06:05:19;96341.19;;;14.18;100.00
4012;BME280;2020;48.682;9.024;2023-09-19T06:07:45;96346.78;;;14.15;100.00
4012;BME280;2020;48.682;9.024;2023-09-19T06:10:11;96351.19;;;14.14;100.00
4012;BME280;2020;48.682;9.024;2023-09-19T06:12:39;96357.63;;;14.12;100.00
4012;BME280;2020;48.682;9.024;2023-09-19T06:15:05;96363.94;;;14.02;100.00
4012;BME280;2020;48.682;9.024;2023-09-19T06:17:33;96368.25;;;13.95;100.00
4012;BME280;2020;48.682;9.024;2023-09-19T06:20:04;96365.00;;;13.93;100.00
4012;BME280;2020;48.682;9.024;2023-09-19T06:22:29;96361.41;;;13.94;100.00
4012;BME280;2020;48.682;9.024;2023-09-19T06:24:55;96366.78;;;13.93;100.00
4012;BME280;2020;48.682;9.024;2023-09-19T06:27:21;96365.31;;;13.90;100.00
4012;BME280;2020;48.682;9.024;2023-09-19T06:29:47;96365.44;;;13.97;100.00
4012;BME280;2020;48.682;9.024;2023-09-19T06:32:12;96370.44;;;14.07;100.00
4012;BME280;2020;48.682;9.024;2023-09-19T06:34:37;96362.84;;;14.12;100.00
4012;BME280;2020;48.682;9.024;2023-09-19T06:37:04;96359.47;;;14.48;100.00
4012;BME280;2020;48.682;9.024;2023-09-19T06:39:31;96369.13;;;14.62;100.00
4012;BME280;2020;48.682;9.024;2023-09-19T06:41:56;96358.59;;;14.93;100.00
4012;BME280;2020;48.682;9.024;2023-09-19T06:44:21;96361.31;;;14.99;100.00
4012;BME280;2020;48.682;9.024;2023-09-19T06:46:50;96363.97;;;15.06;100.00
4012;BME280;2020;48.682;9.024;2023-09-19T06:49:19;96359.97;;;15.10;100.00
4012;BME280;2020;48.682;9.024;2023-09-19T06:51:44;96367.72;;;15.18;100.00
4012;BME280;2020;48.682;9.024;2023-09-19T06:54:10;96376.22;;;15.20;100.00
4012;BME280;2020;48.682;9.024;2023-09-19T06:56:35;96374.38;;;15.36;100.00
4012;BME280;2020;48.682;9.024;2023-09-19T06:59:01;96374.63;;;15.41;100.00
4012;BME280;2020;48.682;9.024;2023-09-19T07:01:27;96377.66;;;15.45;100.00
4012;BME280;2020;48.682;9.024;2023-09-19T07:03:53;96385.16;;;15.48;100.00
4012;BME280;2020;48.682;9.024;2023-09-19T07:06:18;96388.97;;;15.45;100.00
4012;BME280;2020;48.682;9.024;2023-09-19T07:08:43;96386.22;;;15.54;100.00
4012;BME280;2020;48.682;9.024;2023-09-19T07:11:10;96391.09;;;15.57;100.00
4012;BME280;2020;48.682;9.024;2023-09-19T07:13:37;96392.72;;;15.58;100.00
4012;BME280;2020;48.682;9.024;2023-09-19T07:16:03;96395.56;;;15.63;100.00
4012;BME280;2020;48.682;9.024;2023-09-19T07:18:29;96401.06;;;15.68;100.00
4012;BME280;2020;48.682;9.024;2023-09-19T07:20:59;96404.31;;;15.70;100.00
4012;BME280;2020;48.682;9.024;2023-09-19T07:23:29;96402.97;;;15.81;100.00
4012;BME280;2020;48.682;9.024;2023-09-19T07:25:59;96409.94;;;15.89;100.00
4012;BME280;2020;48.682;9.024;2023-09-19T07:28:25;96412.41;;;15.97;100.00
4012;BME280;2020;48.682;9.024;2023-09-19T07:30:50;96412.38;;;16.19;100.00
4012;BME280;2020;48.682;9.024;2023-09-19T07:33:16;96411.13;;;16.15;100.00
4012;BME280;2020;48.682;9.024;2023-09-19T07:35:45;96414.22;;;16.25;100.00
4012;BME280;2020;48.682;9.024;2023-09-19T07:38:11;96418.69;;;16.31;100.00
4012;BME280;2020;48.682;9.024;2023-09-19T07:40:36;96417.47;;;16.27;100.00
4012;BME280;2020;48.682;9.024;2023-09-19T07:43:02;96423.56;;;16.34;100.00
4012;BME280;2020;48.682;9.024;2023-09-19T07:45:36;96426.41;;;16.40;100.00
4012;BME280;2020;48.682;9.024;2023-09-19T07:48:01;96424.03;;;16.45;100.00
4012;BME280;2020;48.682;9.024;2023-09-19T07:50:29;96426.50;;;16.53;100.00
4012;BME280;2020;48.682;9.024;2023-09-19T07:52:55;96423.03;;;16.46;98.99
4012;BME280;2020;48.682;9.024;2023-09-19T07:55:21;96431.41;;;16.63;99.21
4012;BME280;2020;48.682;9.024;2023-09-19T07:57:50;96423.00;;;16.81;96.67
4012;BME280;2020;48.682;9.024;2023-09-19T08:00:16;96425.53;;;17.03;96.87
4012;BME280;2020;48.682;9.024;2023-09-19T08:02:42;96434.72;;;17.34;99.23
4012;BME280;2020;48.682;9.024;2023-09-19T08:05:08;96428.09;;;17.45;95.84
4012;BME280;2020;48.682;9.024;2023-09-19T08:07:38;96436.78;;;17.38;92.14
4012;BME280;2020;48.682;9.024;2023-09-19T08:10:04;96435.38;;;17.63;95.02
4012;BME280;2020;48.682;9.024;2023-09-19T08:12:30;96438.00;;;17.49;92.77
4012;BME280;2020;48.682;9.024;2023-09-19T08:14:55;96435.75;;;17.33;87.78
4012;BME280;2020;48.682;9.024;2023-09-19T08:17:20;96444.66;;;17.45;96.00
4012;BME280;2020;48.682;9.024;2023-09-19T08:19:47;96452.78;;;17.57;92.17
4012;BME280;2020;48.682;9.024;2023-09-19T08:22:14;96447.50;;;17.50;92.01
4012;BME280;2020;48.682;9.024;2023-09-19T08:24:42;96449.47;;;17.21;86.10
4012;BME280;2020;48.682;9.024;2023-09-19T08:27:08;96454.00;;;16.92;89.97
4012;BME280;2020;48.682;9.024;2023-09-19T08:29:35;96458.28;;;16.58;84.61
4012;BME280;2020;48.682;9.024;2023-09-19T08:32:00;96450.59;;;16.99;94.38
4012;BME280;2020;48.682;9.024;2023-09-19T08:34:26;96464.44;;;16.79;89.47
4012;BME280;2020;48.682;9.024;2023-09-19T08:36:52;96459.44;;;16.91;91.53
4012;BME280;2020;48.682;9.024;2023-09-19T08:39:24;96459.25;;;16.92;87.06
4012;BME280;2020;48.682;9.024;2023-09-19T08:42:00;96463.19;;;17.17;87.67
4012;BME280;2020;48.682;9.024;2023-09-19T08:44:26;96466.91;;;17.29;85.23
4012;BME280;2020;48.682;9.024;2023-09-19T08:47:01;96462.50;;;17.70;89.33
4012;BME280;2020;48.682;9.024;2023-09-19T08:49:53;96463.38;;;18.18;87.88
4012;BME280;2020;48.682;9.024;2023-09-19T08:52:37;96471.44;;;18.50;85.09
4012;BME280;2020;48.682;9.024;2023-09-19T08:55:06;96473.25;;;18.63;83.66
4012;BME280;2020;48.682;9.024;2023-09-19T08:57:33;96481.53;;;18.73;84.58
4012;BME280;2020;48.682;9.024;2023-09-19T09:00:04;96473.81;;;18.71;79.46
4012;BME280;2020;48.682;9.024;2023-09-19T09:02:37;96466.72;;;18.79;76.06
4012;BME280;2020;48.682;9.024;2023-09-19T09:05:05;96477.50;;;18.57;72.38
4012;BME280;2020;48.682;9.024;2023-09-19T09:07:32;96475.53;;;18.32;73.73
4012;BME280;2020;48.682;9.024;2023-09-19T09:10:00;96481.59;;;18.39;71.74
4012;BME280;2020;48.682;9.024;2023-09-19T09:12:25;96481.97;;;18.63;76.47
4012;BME280;2020;48.682;9.024;2023-09-19T09:14:51;96469.19;;;18.60;69.50
4012;BME280;2020;48.682;9.024;2023-09-19T09:17:17;96481.31;;;18.75;73.24
4012;BME280;2020;48.682;9.024;2023-09-19T09:19:47;96485.88;;;19.20;69.39
4012;BME280;2020;48.682;9.024;2023-09-19T09:22:13;96489.97;;;18.95;70.27
4012;BME280;2020;48.682;9.024;2023-09-19T09:24:55;96496.94;;;18.76;65.37
4012;BME280;2020;48.682;9.024;2023-09-19T09:27:26;96485.16;;;18.79;67.12
4012;BME280;2020;48.682;9.024;2023-09-19T09:29:52;96482.72;;;18.84;67.91
4012;BME280;2020;48.682;9.024;2023-09-19T09:32:24;96489.97;;;18.95;67.56
4012;BME280;2020;48.682;9.024;2023-09-19T09:34:53;96479.84;;;18.92;65.45
4012;BME280;2020;48.682;9.024;2023-09-19T09:37:19;96475.44;;;18.79;67.32
4012;BME280;2020;48.682;9.024;2023-09-19T09:39:57;96474.00;;;18.77;64.31
4012;BME280;2020;48.682;9.024;2023-09-19T09:45:13;96491.59;;;18.96;63.22
4012;BME280;2020;48.682;9.024;2023-09-19T09:47:48;96474.03;;;19.36;68.06
4012;BME280;2020;48.682;9.024;2023-09-19T09:50:31;96488.53;;;19.58;67.99
4012;BME280;2020;48.682;9.024;2023-09-19T09:56:06;96470.31;;;19.76;64.24
4012;BME280;2020;48.682;9.024;2023-09-19T09:58:49;96478.22;;;19.82;63.78
4012;BME280;2020;48.682;9.024;2023-09-19T10:01:16;96479.59;;;19.85;60.04
4012;BME280;2020;48.682;9.024;2023-09-19T10:03:43;96479.06;;;20.08;60.84
4012;BME280;2020;48.682;9.024;2023-09-19T10:06:11;96491.34;;;19.57;63.08
4012;BME280;2020;48.682;9.024;2023-09-19T10:09:04;96486.09;;;19.57;63.94
4012;BME280;2020;48.682;9.024;2023-09-19T10:11:41;96481.00;;;19.23;57.57
4012;BME280;2020;48.682;9.024;2023-09-19T10:14:09;96486.63;;;19.34;62.43
4012;BME280;2020;48.682;9.024;2023-09-19T10:16:36;96481.53;;;19.71;58.65
4012;BME280;2020;48.682;9.024;2023-09-19T10:19:07;96481.38;;;19.98;61.00
4012;BME280;2020;48.682;9.024;2023-09-19T10:21:36;96479.22;;;20.13;59.24
4012;BME280;2020;48.682;9.024;2023-09-19T10:24:03;96479.28;;;20.07;59.79
4012;BME280;2020;48.682;9.024;2023-09-19T10:26:34;96475.53;;;19.89;58.49
4012;BME280;2020;48.682;9.024;2023-09-19T10:29:01;96474.38;;;19.78;61.23
4012;BME280;2020;48.682;9.024;2023-09-19T10:31:29;96468.00;;;19.93;60.45
4012;BME280;2020;48.682;9.024;2023-09-19T10:33:55;96465.91;;;20.27;60.33
4012;BME280;2020;48.682;9.024;2023-09-19T10:36:24;96469.94;;;20.55;59.61
4012;BME280;2020;48.682;9.024;2023-09-19T10:38:52;96472.38;;;20.50;56.15
4012;BME280;2020;48.682;9.024;2023-09-19T10:41:21;96472.94;;;20.77;60.32
4012;BME280;2020;48.682;9.024;2023-09-19T10:43:48;96461.31;;;20.15;55.40
4012;BME280;2020;48.682;9.024;2023-09-19T10:46:14;96466.56;;;20.66;61.12
4012;BME280;2020;48.682;9.024;2023-09-19T10:48:40;96466.00;;;20.83;60.63
4012;BME280;2020;48.682;9.024;2023-09-19T10:51:18;96466.84;;;20.77;57.54
4012;BME280;2020;48.682;9.024;2023-09-19T10:53:48;96471.03;;;20.66;59.80
4012;BME280;2020;48.682;9.024;2023-09-19T10:56:29;96476.16;;;20.60;56.99
4012;BME280;2020;48.682;9.024;2023-09-19T10:59:11;96464.94;;;20.65;60.37
4012;BME280;2020;48.682;9.024;2023-09-19T11:01:42;96468.91;;;20.74;57.03
4012;BME280;2020;48.682;9.024;2023-09-19T11:04:31;96462.59;;;20.57;57.79
4012;BME280;2020;48.682;9.024;2023-09-19T11:07:06;96467.44;;;20.60;58.57
4012;BME280;2020;48.682;9.024;2023-09-19T11:09:50;96464.63;;;20.55;57.56
4012;BME280;2020;48.682;9.024;2023-09-19T11:14:57;96458.78;;;20.71;56.72
4012;BME280;2020;48.682;9.024;2023-09-19T11:17:32;96455.41;;;21.01;55.90
4012;BME280;2020;48.682;9.024;2023-09-19T11:30:41;96448.41;;;20.26;55.62
4012;BME280;2020;48.682;9.024;2023-09-19T11:33:24;96452.91;;;20.88;54.84
4012;BME280;2020;48.682;9.024;2023-09-19T11:36:08;96443.25;;;21.43;59.31
4012;BME280;2020;48.682;9.024;2023-09-19T11:46:30;96440.28;;;21.51;55.96
4012;BME280;2020;48.682;9.024;2023-09-19T11:49:05;96437.50;;;21.46;52.25
4012;BME280;2020;48.682;9.024;2023-09-19T11:51:40;96447.63;;;20.88;54.73
4012;BME280;2020;48.682;9.024;2023-09-19T11:54:10;96447.03;;;20.67;55.50
4012;BME280;2020;48.682;9.024;2023-09-19T11:56:43;96439.50;;;20.45;58.08
4012;BME280;2020;48.682;9.024;2023-09-19T11:59:09;96441.22;;;20.96;56.98
4012;BME280;2020;48.682;9.024;2023-09-19T12:01:34;96430.84;;;21.55;55.79
4012;BME280;2020;48.682;9.024;2023-09-19T12:04:03;96440.38;;;21.14;55.03
4012;BME280;2020;48.682;9.024;2023-09-19T12:06:30;96431.34;;;21.22;52.32
4012;BME280;2020;48.682;9.024;2023-09-19T12:08:57;96433.13;;;21.40;54.52
4012;BME280;2020;48.682;9.024;2023-09-19T12:11:30;96429.94;;;21.61;54.39
4012;BME280;2020;48.682;9.024;2023-09-19T12:13:58;96423.47;;;21.45;53.01
4012;BME280;2020;48.682;9.024;2023-09-19T12:16:26;96428.78;;;21.57;53.58
4012;BME280;2020;48.682;9.024;2023-09-19T12:18:55;96424.16;;;21.71;53.60
4012;BME280;2020;48.682;9.024;2023-09-19T12:24:12;96422.56;;;22.06;51.87
4012;BME280;2020;48.682;9.024;2023-09-19T12:26:45;96413.47;;;22.26;53.53
4012;BME280;2020;48.682;9.024;2023-09-19T12:29:18;96415.53;;;22.00;52.70
4012;BME280;2020;48.682;9.024;2023-09-19T12:31:54;96409.06;;;22.43;54.72
4012;BME280;2020;48.682;9.024;2023-09-19T12:34:27;96407.03;;;22.45;52.79
4012;BME280;2020;48.682;9.024;2023-09-19T12:37:14;96407.66;;;21.69;56.44
4012;BME280;2020;48.682;9.024;2023-09-19T12:39:53;96404.84;;;22.18;50.06
4012;BME280;2020;48.682;9.024;2023-09-19T12:42:21;96403.69;;;22.14;51.96
4012;BME280;2020;48.682;9.024;2023-09-19T12:44:49;96397.66;;;21.41;51.24
4012;BME280;2020;48.682;9.024;2023-09-19T12:47:20;96399.59;;;21.76;52.45
4012;BME280;2020;48.682;9.024;2023-09-19T12:50:13;96403.69;;;21.48;55.31
4012;BME280;2020;48.682;9.024;2023-09-19T12:52:52;96395.41;;;21.56;53.57
4012;BME280;2020;48.682;9.024;2023-09-19T12:55:28;96393.66;;;21.93;52.51
4012;BME280;2020;48.682;9.024;2023-09-19T12:58:07;96397.34;;;22.15;52.91
4012;BME280;2020;48.682;9.024;2023-09-19T13:00:39;96398.97;;;21.93;51.80
4012;BME280;2020;48.682;9.024;2023-09-19T13:06:02;96406.19;;;20.82;53.62
4012;BME280;2020;48.682;9.024;2023-09-19T13:08:31;96395.16;;;21.15;54.88
4012;BME280;2020;48.682;9.024;2023-09-19T13:13:33;96384.63;;;21.70;54.47
4012;BME280;2020;48.682;9.024;2023-09-19T13:16:01;96388.56;;;22.27;53.14
4012;BME280;2020;48.682;9.024;2023-09-19T13:18:27;96388.56;;;22.27;50.71
4012;BME280;2020;48.682;9.024;2023-09-19T13:21:09;96378.72;;;21.56;49.83
4012;BME280;2020;48.682;9.024;2023-09-19T13:23:42;96389.78;;;21.22;52.60
4012;BME280;2020;48.682;9.024;2023-09-19T13:26:08;96388.72;;;21.11;52.20
4012;BME280;2020;48.682;9.024;2023-09-19T13:28:33;96394.22;;;21.40;53.92
4012;BME280;2020;48.682;9.024;2023-09-19T13:30:59;96389.63;;;21.90;50.58
4012;BME280;2020;48.682;9.024;2023-09-19T13:33:24;96380.94;;;21.71;51.97
4012;BME280;2020;48.682;9.024;2023-09-19T13:35:51;96385.13;;;22.14;51.30
4012;BME280;2020;48.682;9.024;2023-09-19T13:38:17;96380.59;;;21.79;50.35
4012;BME280;2020;48.682;9.024;2023-09-19T13:40:44;96367.63;;;22.13;51.28
4012;BME280;2020;48.682;9.024;2023-09-19T13:43:09;96392.63;;;21.51;49.52
4012;BME280;2020;48.682;9.024;2023-09-19T13:45:36;96368.22;;;21.49;51.98
4012;BME280;2020;48.682;9.024;2023-09-19T13:48:02;96367.31;;;21.55;50.84
4012;BME280;2020;48.682;9.024;2023-09-19T13:50:28;96368.88;;;21.63;49.69
4012;BME280;2020;48.682;9.024;2023-09-19T13:52:54;96355.47;;;21.58;50.57
4012;BME280;2020;48.682;9.024;2023-09-19T13:55:19;96361.88;;;21.93;51.92
4012;BME280;2020;48.682;9.024;2023-09-19T13:57:49;96368.41;;;21.90;50.00
4012;BME280;2020;48.682;9.024;2023-09-19T14:00:21;96361.13;;;22.33;51.97
4012;BME280;2020;48.682;9.024;2023-09-19T14:02:47;96358.69;;;22.31;48.17
4012;BME280;2020;48.682;9.024;2023-09-19T14:05:14;96352.63;;;21.83;48.93
4012;BME280;2020;48.682;9.024;2023-09-19T14:07:44;96357.09;;;22.30;49.48
4012;BME280;2020;48.682;9.024;2023-09-19T14:10:11;96359.97;;;22.53;47.41
4012;BME280;2020;48.682;9.024;2023-09-19T14:12:37;96354.31;;;22.49;48.16